Time;durP1;ratioP1;P1;durP2;ratioP2;P2;SDS_P1;SDS_P2;PMS_P1;PMS_P2;Temp;Humidity;BMP_temperature;BMP_pressure;BME280_temperature;BME280_humidity;BME280_pressure;Samples;Min_cycle;Max_cycle;Signal;HPM_P1;HPM_P2
2021/12/05 00:18:59;;;;;;;;;0.00;0.00;;;;;5.95;100.00;100020.41;5039843;28;45794;-60
2021/12/05 00:21:40;;;;;;;;;2.00;0.00;;;;;5.92;99.75;100020.47;5038837;28;45368;-60
2021/12/05 00:24:13;;;;;;;;;1.00;0.00;;;;;5.91;100.00;100011.88;5039455;28;46425;-60
2021/12/05 00:26:39;;;;;;;;;2.75;0.00;;;;;5.93;100.00;100014.44;5041281;28;45709;-60
2021/12/05 00:42:07;;;;;;;;;1.25;0.00;;;;;5.69;100.00;100000.28;5052335;28;45539;-58
2021/12/05 01:11:16;;;;;;;;;2.00;1.00;;;;;5.78;100.00;99989.75;5056710;28;45606;-58
2021/12/05 01:16:31;;;;;;;;;0.00;0.00;;;;;5.83;100.00;99971.66;5063509;28;45256;-58
2021/12/05 01:18:57;;;;;;;;;1.00;0.00;;;;;5.84;100.00;99973.34;5063139;28;45498;-58
2021/12/05 01:21:25;;;;;;;;;0.00;0.00;;;;;5.85;100.00;99968.16;5063008;28;45719;-58
2021/12/05 01:24:07;;;;;;;;;4.25;1.00;;;;;5.87;100.00;99970.69;5062948;28;45318;-58
2021/12/05 01:29:30;;;;;;;;;0.25;0.25;;;;;5.76;100.00;99956.28;5062951;28;46001;-58
2021/12/05 01:32:07;;;;;;;;;3.25;1.75;;;;;5.75;100.00;99961.47;5062798;28;45350;-59
2021/12/05 01:44:55;;;;;;;;;0.00;0.00;;;;;5.69;100.00;99964.19;5060164;28;45449;-58
2021/12/05 01:55:43;;;;;;;;;2.00;2.00;;;;;5.65;100.00;99950.50;5060611;28;45580;-62
2021/12/05 02:37:07;;;;;;;;;0.00;0.00;;;;;5.29;100.00;99944.34;5061750;28;45704;-58
2021/12/05 02:42:24;;;;;;;;;0.00;0.00;;;;;5.30;100.00;99942.59;5062012;28;45637;-61
2021/12/05 02:44:50;;;;;;;;;0.00;0.00;;;;;5.29;100.00;99928.03;5061654;28;46859;-62
2021/12/05 02:47:20;;;;;;;;;0.00;0.00;;;;;5.27;100.00;99928.06;5061814;28;45327;-60
2021/12/05 02:49:48;;;;;;;;;0.50;0.50;;;;;5.25;100.00;99910.94;5062070;28;45208;-60
2021/12/05 02:52:23;;;;;;;;;0.00;0.00;;;;;5.25;100.00;99913.53;5061735;28;45284;-60
2021/12/05 02:54:52;;;;;;;;;0.50;0.00;;;;;5.18;99.68;99911.03;5060578;28;45634;-60
2021/12/05 02:57:29;;;;;;;;;1.00;1.00;;;;;5.18;100.00;99912.75;5061500;28;45241;-61
2021/12/05 02:59:57;;;;;;;;;0.25;0.00;;;;;5.18;100.00;99907.63;5061621;28;45251;-60
2021/12/05 03:02:36;;;;;;;;;0.75;0.00;;;;;5.20;100.00;99913.59;5061603;28;45164;-62
2021/12/05 03:05:06;;;;;;;;;0.00;0.00;;;;;5.19;100.00;99911.88;5061208;28;46311;-60
2021/12/05 03:07:37;;;;;;;;;0.00;0.00;;;;;5.23;100.00;99915.28;5061508;28;45181;-60
2021/12/05 03:10:03;;;;;;;;;0.50;0.00;;;;;5.22;100.00;99913.59;5061564;28;45337;-61
2021/12/05 03:12:30;;;;;;;;;0.00;0.00;;;;;5.23;100.00;99912.69;5061435;28;45315;-61
2021/12/05 03:15:01;;;;;;;;;2.00;0.00;;;;;5.22;100.00;99905.84;5061211;28;46310;-61
2021/12/05 03:17:27;;;;;;;;;0.00;0.00;;;;;5.21;100.00;99906.75;5061198;28;45275;-60
2021/12/05 03:19:52;;;;;;;;;0.00;0.00;;;;;5.17;100.00;99893.88;5061460;28;45508;-60
2021/12/05 03:22:17;;;;;;;;;0.00;0.00;;;;;5.16;100.00;99911.94;5061207;28;45418;-59
2021/12/05 03:24:44;;;;;;;;;1.50;0.25;;;;;5.16;100.00;99909.38;5061056;28;46281;-59
2021/12/05 03:27:10;;;;;;;;;4.00;0.00;;;;;5.15;100.00;99903.38;5061127;28;45708;-60
2021/12/05 03:29:35;;;;;;;;;0.50;0.00;;;;;5.18;100.00;99902.47;5061267;28;45523;-59
2021/12/05 03:32:01;;;;;;;;;0.00;0.00;;;;;5.17;100.00;99911.91;5061196;28;45251;-58
2021/12/05 03:34:26;;;;;;;;;0.00;0.00;;;;;5.14;100.00;99905.97;5060970;28;45205;-59
2021/12/05 03:36:57;;;;;;;;;0.00;0.00;;;;;5.13;100.00;99905.13;5061110;28;45296;-61
2021/12/05 03:39:23;;;;;;;;;0.00;0.00;;;;;5.11;100.00;99898.31;5061352;28;45375;-61
2021/12/05 03:41:52;;;;;;;;;0.00;0.00;;;;;5.08;100.00;99890.66;5060970;28;45601;-61
2021/12/05 03:44:20;;;;;;;;;6.25;6.25;;;;;5.08;100.00;99893.22;5060705;28;47163;-61
2021/12/05 03:46:48;;;;;;;;;3.75;3.75;;;;;5.11;100.00;99888.00;5060967;28;45760;-62
2021/12/05 03:49:13;;;;;;;;;3.50;0.00;;;;;5.11;100.00;99894.00;5060988;28;45170;-60
2021/12/05 03:51:46;;;;;;;;;23.25;17.75;;;;;5.11;100.00;99880.28;5060977;28;45542;-61
2021/12/05 03:54:12;;;;;;;;;3.00;3.00;;;;;5.12;100.00;99888.00;5059654;28;46559;-61
2021/12/05 03:56:39;;;;;;;;;0.00;0.00;;;;;5.12;100.00;99889.72;5060853;28;45285;-61
2021/12/05 03:59:07;;;;;;;;;0.00;0.00;;;;;5.09;100.00;99880.31;5060694;28;45220;-61
2021/12/05 04:01:33;;;;;;;;;0.25;0.00;;;;;5.10;100.00;99883.75;5060762;28;45415;-61
2021/12/05 04:03:59;;;;;;;;;1.00;0.00;;;;;5.10;100.00;99884.59;5060279;28;46159;-61
2021/12/05 04:06:25;;;;;;;;;0.00;0.00;;;;;5.06;100.00;99879.53;5060753;28;45312;-58
2021/12/05 04:08:52;;;;;;;;;0.00;0.00;;;;;5.05;100.00;99875.25;5060467;28;45331;-59
2021/12/05 04:11:27;;;;;;;;;0.00;0.00;;;;;5.06;100.00;99882.97;5060646;28;45325;-59
2021/12/05 04:13:53;;;;;;;;;0.00;0.00;;;;;5.06;100.00;99864.94;5060402;28;45974;-57
2021/12/05 04:16:18;;;;;;;;;0.50;0.00;;;;;5.04;100.00;99876.16;5060591;28;45248;-60
2021/12/05 04:18:46;;;;;;;;;0.00;0.00;;;;;5.03;100.00;99883.03;5060352;28;45320;-61
2021/12/05 04:21:12;;;;;;;;;0.50;0.00;;;;;5.02;100.00;99886.47;5058678;28;45421;-61
2021/12/05 04:23:38;;;;;;;;;0.00;0.00;;;;;5.02;99.82;99873.59;5040409;28;46970;-60
2021/12/05 04:26:04;;;;;;;;;0.00;0.00;;;;;5.05;100.00;99878.69;5058773;28;45470;-61
2021/12/05 04:28:30;;;;;;;;;0.00;0.00;;;;;5.08;100.00;99881.19;5041355;28;45395;-62
2021/12/05 04:30:55;;;;;;;;;0.00;0.00;;;;;5.08;99.93;99870.91;5060277;28;45610;-61
2021/12/05 04:33:21;;;;;;;;;0.00;0.00;;;;;5.08;100.00;99873.47;5060074;28;45349;-61
2021/12/05 04:35:47;;;;;;;;;0.00;0.00;;;;;5.05;97.95;99865.81;5060097;28;45340;-61
2021/12/05 04:38:13;;;;;;;;;1.00;0.00;;;;;5.01;100.00;99864.19;5058617;28;45522;-61
2021/12/05 04:40:39;;;;;;;;;0.00;0.00;;;;;5.00;100.00;99862.44;5057770;28;45522;-61
2021/12/05 04:43:05;;;;;;;;;2.00;1.00;;;;;4.93;96.00;99860.88;5057150;28;46972;-61
2021/12/05 04:45:33;;;;;;;;;0.00;0.00;;;;;4.92;100.00;99854.03;5058729;28;45812;-60
2021/12/05 04:47:59;;;;;;;;;1.00;0.00;;;;;4.93;100.00;99850.59;5058202;28;45582;-60
2021/12/05 04:50:26;;;;;;;;;0.00;0.00;;;;;4.90;99.82;99855.78;5058587;28;45481;-60
2021/12/05 04:52:55;;;;;;;;;0.25;0.00;;;;;4.91;98.37;99857.50;5058921;28;45317;-60
2021/12/05 04:55:20;;;;;;;;;0.00;0.00;;;;;4.87;100.00;99866.16;5059383;28;45511;-60
2021/12/05 04:57:46;;;;;;;;;1.00;0.00;;;;;4.83;98.68;99855.06;5058785;28;45468;-60
2021/12/05 05:00:24;;;;;;;;;0.00;0.00;;;;;4.84;100.00;99856.75;5059744;28;45484;-60
2021/12/05 05:02:50;;;;;;;;;0.00;0.00;;;;;4.81;98.23;99859.41;5059743;28;45434;-60
2021/12/05 05:05:16;;;;;;;;;0.00;0.00;;;;;4.84;100.00;99848.19;5058844;28;45917;-60
2021/12/05 05:07:43;;;;;;;;;0.00;0.00;;;;;4.84;100.00;99851.63;5057648;28;45712;-59
2021/12/05 05:10:16;;;;;;;;;0.00;0.00;;;;;4.82;97.45;99853.38;5058249;28;45223;-59
2021/12/05 05:12:41;;;;;;;;;0.00;0.00;;;;;4.84;100.00;99855.91;5058232;28;45528;-58
2021/12/05 05:15:08;;;;;;;;;0.00;0.00;;;;;4.84;97.75;99853.34;5059431;28;45337;-58
2021/12/05 05:17:35;;;;;;;;;0.00;0.00;;;;;4.86;99.18;99846.44;5063823;28;45504;-58
2021/12/05 05:20:07;;;;;;;;;0.00;0.00;;;;;4.87;98.94;99845.56;5059251;28;45500;-58
2021/12/05 05:44:34;;;;;;;;;0.00;0.00;;;;;5.31;100.00;99864.44;5057821;28;45540;-59
2021/12/05 05:52:03;;;;;;;;;0.00;0.00;;;;;5.44;97.69;99858.19;5059168;28;45355;-59
2021/12/05 05:54:29;;;;;;;;;0.00;0.00;;;;;5.41;99.49;99851.38;5057894;28;45402;-58
2021/12/05 05:57:01;;;;;;;;;0.00;0.00;;;;;5.39;100.00;99849.66;5059014;28;45346;-59
2021/12/05 05:59:37;;;;;;;;;0.00;0.00;;;;;5.40;100.00;99851.38;5061068;28;45229;-62
2021/12/05 06:04:35;;;;;;;;;1.00;0.00;;;;;5.38;100.00;99843.66;5049933;28;45317;-62
2021/12/05 06:07:00;;;;;;;;;0.25;0.00;;;;;5.41;100.00;99848.78;5062491;28;45445;-60
2021/12/05 06:09:25;;;;;;;;;1.00;1.00;;;;;5.44;100.00;99840.16;5061194;28;45217;-59
2021/12/05 06:11:51;;;;;;;;;0.50;0.00;;;;;5.43;100.00;99830.72;5061054;28;45237;-59
2021/12/05 06:14:16;;;;;;;;;0.75;0.00;;;;;5.42;100.00;99831.59;5062193;28;46239;-59
2021/12/05 06:16:41;;;;;;;;;4.00;0.00;;;;;5.44;100.00;99832.41;5062307;28;45228;-59
2021/12/05 06:19:07;;;;;;;;;0.00;0.00;;;;;5.44;100.00;99835.00;5062531;28;45409;-60
2021/12/05 06:21:33;;;;;;;;;1.25;0.75;;;;;5.45;100.00;99828.94;5061906;28;45325;-60
2021/12/05 06:23:58;;;;;;;;;2.25;1.00;;;;;5.48;100.00;99834.88;5062045;28;45138;-60
2021/12/05 06:26:24;;;;;;;;;0.75;0.00;;;;;5.46;100.00;99838.38;5062073;28;45342;-63
2021/12/05 06:29:42;;;;;;;;;0.00;0.00;;;;;5.46;100.00;99843.53;5061466;28;45586;-62
2021/12/05 06:39:41;;;;;;;;;0.00;0.00;;;;;5.50;100.00;99847.72;5061126;28;45706;-62
2021/12/05 06:47:35;;;;;;;;;1.00;0.00;;;;;5.61;100.00;99837.22;5057801;28;45314;-61
2021/12/05 06:50:00;;;;;;;;;0.00;0.00;;;;;5.59;98.14;99839.78;5058989;28;45703;-64
2021/12/05 06:52:26;;;;;;;;;3.75;1.00;;;;;5.60;99.04;99851.78;5059914;28;45382;-63
2021/12/05 06:54:51;;;;;;;;;1.00;0.00;;;;;5.65;98.52;99864.59;5060294;28;46282;-63
2021/12/05 06:57:17;;;;;;;;;0.00;0.00;;;;;5.70;100.00;99866.19;5060764;28;45425;-61
2021/12/05 06:59:45;;;;;;;;;0.50;0.00;;;;;5.72;100.00;99867.00;5060605;28;45349;-62
2021/12/05 07:02:12;;;;;;;;;0.00;0.00;;;;;5.72;98.31;99869.59;5060681;28;45398;-61
2021/12/05 07:04:56;;;;;;;;;0.00;0.00;;;;;5.70;98.94;99860.19;5060686;28;46189;-61
2021/12/05 07:07:25;;;;;;;;;0.00;0.00;;;;;5.69;100.00;99851.63;5060736;28;45473;-61
2021/12/05 07:09:51;;;;;;;;;0.00;0.00;;;;;5.68;100.00;99859.38;5060219;28;45339;-61
2021/12/05 07:12:45;;;;;;;;;0.00;0.00;;;;;5.66;100.00;99867.16;5060642;28;45456;-59
2021/12/05 07:15:16;;;;;;;;;0.00;0.00;;;;;5.63;100.00;99863.78;5059569;28;46223;-59
2021/12/05 07:26:06;;;;;;;;;1.00;1.00;;;;;5.62;100.00;99868.09;5061164;28;45366;-59
2021/12/05 07:42:30;;;;;;;;;2.00;0.50;;;;;5.47;100.00;99861.53;5061130;28;45497;-60
2021/12/05 07:44:59;;;;;;;;;0.00;0.00;;;;;5.49;100.00;99861.50;5060876;28;45269;-60
2021/12/05 07:47:29;;;;;;;;;1.00;1.00;;;;;5.42;100.00;99865.94;5060615;28;46558;-60
2021/12/05 07:49:56;;;;;;;;;1.00;0.00;;;;;5.43;100.00;99866.78;5060716;28;45770;-60
2021/12/05 07:52:25;;;;;;;;;0.00;0.00;;;;;5.44;100.00;99868.47;5060826;28;45454;-59
2021/12/05 07:54:58;;;;;;;;;1.00;0.75;;;;;5.47;100.00;99868.41;5059917;28;45584;-59
2021/12/05 07:57:38;;;;;;;;;0.00;0.00;;;;;5.50;100.00;99863.19;5060434;28;46897;-60
2021/12/05 08:00:32;;;;;;;;;0.00;0.00;;;;;5.48;100.00;99865.81;5060384;28;45851;-60
2021/12/05 08:14:27;;;;;;;;;0.00;0.00;;;;;5.51;100.00;99870.03;5060192;28;45319;-60
2021/12/05 08:16:53;;;;;;;;;2.00;0.00;;;;;5.48;100.00;99870.97;5060196;28;45181;-60
2021/12/05 08:19:19;;;;;;;;;1.00;0.00;;;;;5.43;100.00;99862.47;5060136;28;46340;-61
2021/12/05 08:21:46;;;;;;;;;2.00;2.00;;;;;5.44;100.00;99865.91;5058817;28;45313;-60
2021/12/05 08:24:11;;;;;;;;;1.00;1.00;;;;;5.46;100.00;99872.72;5058908;28;45382;-60
2021/12/05 08:26:37;;;;;;;;;1.50;1.50;;;;;5.49;100.00;99876.97;5056887;28;45473;-64
2021/12/05 08:29:12;;;;;;;;;0.50;0.00;;;;;5.53;100.00;99875.16;5058462;28;45543;-60
2021/12/05 10:08:45;;;;;;;;;1.00;1.00;;;;;7.72;98.13;99938.63;5057174;28;45832;-59
2021/12/05 10:16:23;;;;;;;;;1.00;1.00;;;;;7.62;96.39;99941.47;5057438;28;45343;-60
2021/12/05 10:38:11;;;;;;;;;1.00;1.00;;;;;7.63;99.87;99922.47;5060177;28;45432;-64
2021/12/05 10:40:47;;;;;;;;;1.75;1.75;;;;;7.66;96.21;99916.38;5060676;28;45826;-68
2021/12/05 10:43:14;;;;;;;;;2.00;2.00;;;;;7.70;99.22;99927.47;5060599;28;45550;-68
2021/12/05 10:45:49;;;;;;;;;2.00;2.00;;;;;7.71;96.68;99918.81;5060164;28;45227;-59
2021/12/05 10:48:21;;;;;;;;;1.25;1.25;;;;;7.69;96.94;99918.03;5048161;28;46503;-59
2021/12/05 10:50:53;;;;;;;;;2.75;2.00;;;;;7.67;97.13;99914.63;5060458;28;45992;-59
2021/12/05 10:53:38;;;;;;;;;2.00;2.00;;;;;7.69;97.52;99918.03;5059278;28;45227;-63
2021/12/05 10:56:09;;;;;;;;;5.00;3.00;;;;;7.71;96.80;99916.22;5060492;28;45177;-60
2021/12/05 10:58:55;;;;;;;;;1.75;1.50;;;;;7.72;99.20;99907.59;5060343;28;47118;-61
2021/12/05 11:01:36;;;;;;;;;2.50;1.75;;;;;7.74;98.95;99911.81;5060292;28;45247;-61
2021/12/05 11:04:09;;;;;;;;;2.25;1.50;;;;;7.73;98.97;99909.28;5056272;28;45387;-63
2021/12/05 11:06:39;;;;;;;;;2.00;1.00;;;;;7.71;98.25;99908.47;5060549;28;45737;-62
2021/12/05 11:09:13;;;;;;;;;2.50;0.00;;;;;7.64;95.77;99902.66;5059511;28;46333;-61
2021/12/05 11:11:43;;;;;;;;;2.50;1.75;;;;;7.56;96.24;99897.69;5067909;28;45382;-63
2021/12/05 11:14:12;;;;;;;;;4.25;2.00;;;;;7.51;97.96;99899.56;5063548;28;45493;-63
2021/12/05 11:17:04;;;;;;;;;1.75;1.25;;;;;7.49;96.92;99910.81;5068408;28;45518;-63
2021/12/05 11:19:37;;;;;;;;;3.50;2.00;;;;;7.46;98.40;99906.59;5064860;28;47437;-65
2021/12/05 11:22:15;;;;;;;;;2.00;2.00;;;;;7.45;97.70;99914.41;5059812;28;45237;-65
2021/12/05 11:25:02;;;;;;;;;2.25;1.50;;;;;7.42;99.61;99917.91;5059927;28;45363;-67
2021/12/05 11:27:27;;;;;;;;;5.50;2.50;;;;;7.41;100.00;99913.66;5047552;28;45652;-65
2021/12/05 11:30:04;;;;;;;;;6.00;1.75;;;;;7.42;100.00;99920.50;5058302;28;48068;-71
2021/12/05 11:32:48;;;;;;;;;3.25;2.75;;;;;7.33;100.00;99926.75;5060120;28;45232;-61
2021/12/05 11:35:22;;;;;;;;;5.50;5.50;;;;;7.25;100.00;99923.53;5059330;28;45318;-69
2021/12/05 11:37:56;;;;;;;;;8.75;4.50;;;;;7.20;100.00;99932.28;5056497;28;45363;-68
2021/12/05 11:40:24;;;;;;;;;4.25;4.00;;;;;7.02;100.00;99925.91;5059134;28;45435;-64
2021/12/05 11:42:56;;;;;;;;;7.00;5.00;;;;;6.78;100.00;99929.06;5058928;28;45636;-64
2021/12/05 11:45:22;;;;;;;;;3.00;3.00;;;;;6.61;100.00;99929.50;5054643;28;45282;-65
2021/12/05 11:47:51;;;;;;;;;2.50;2.50;;;;;6.54;100.00;99933.09;5054242;28;45290;-61
2021/12/05 11:50:19;;;;;;;;;7.50;5.00;;;;;6.44;100.00;99944.56;5056073;28;46315;-62
2021/12/05 11:52:46;;;;;;;;;4.50;2.75;;;;;6.39;100.00;99952.38;5055167;28;46586;-61
2021/12/05 11:55:25;;;;;;;;;7.50;6.00;;;;;6.35;100.00;99940.44;5058670;28;45319;-62
2021/12/05 11:57:51;;;;;;;;;4.25;3.00;;;;;6.34;100.00;99957.66;5057968;28;45627;-62
2021/12/05 12:00:18;;;;;;;;;2.00;1.00;;;;;6.25;100.00;99952.72;5058605;28;45371;-62
2021/12/05 12:02:46;;;;;;;;;1.75;1.75;;;;;6.08;100.00;99957.38;5056997;28;45476;-61
2021/12/05 12:05:19;;;;;;;;;2.50;0.00;;;;;5.94;100.00;99943.94;5057307;28;45473;-62
2021/12/05 12:08:02;;;;;;;;;0.75;0.00;;;;;5.87;100.00;99943.19;5057210;28;45655;-63
2021/12/05 12:10:33;;;;;;;;;2.00;0.75;;;;;5.89;100.00;99954.31;5057392;28;47126;-62
2021/12/05 12:13:04;;;;;;;;;0.25;0.25;;;;;5.87;100.00;99950.06;5057614;27;45762;-62
2021/12/05 12:15:31;;;;;;;;;1.00;1.00;;;;;5.82;100.00;99944.19;5054899;28;45564;-62
2021/12/05 12:18:10;;;;;;;;;1.00;1.00;;;;;5.82;100.00;99946.75;5057022;28;45520;-62
2021/12/05 12:20:39;;;;;;;;;1.50;1.00;;;;;5.89;100.00;99953.47;5056263;28;46977;-62
2021/12/05 12:23:05;;;;;;;;;1.00;1.00;;;;;5.95;100.00;99954.22;5054889;28;45304;-60
2021/12/05 12:25:36;;;;;;;;;0.00;0.00;;;;;5.98;100.00;99959.28;5052981;28;45346;-60
2021/12/05 12:28:03;;;;;;;;;0.00;0.00;;;;;6.03;100.00;99965.22;5058492;28;45315;-61
2021/12/05 12:30:35;;;;;;;;;2.00;1.00;;;;;6.06;100.00;99969.47;5056722;28;46210;-60
2021/12/05 12:33:13;;;;;;;;;0.00;0.00;;;;;6.09;100.00;99965.09;5058097;28;45473;-61
2021/12/05 12:35:39;;;;;;;;;1.00;1.00;;;;;6.16;100.00;99965.78;5053739;28;45343;-60
2021/12/05 12:38:08;;;;;;;;;2.25;1.25;;;;;6.20;100.00;99964.00;5050107;28;45573;-60
2021/12/05 12:40:43;;;;;;;;;2.00;1.00;;;;;6.25;100.00;99975.94;5054164;28;46785;-61
2021/12/05 12:43:30;;;;;;;;;1.75;1.25;;;;;6.28;100.00;99975.84;5056983;28;45673;-59
2021/12/05 12:45:56;;;;;;;;;1.75;1.75;;;;;6.35;100.00;99984.31;5052169;28;45536;-60
2021/12/05 12:48:28;;;;;;;;;1.00;1.00;;;;;6.51;100.00;99983.06;5058820;28;45420;-60
2021/12/05 12:50:54;;;;;;;;;2.00;2.00;;;;;6.63;100.00;99977.63;5058798;28;47104;-59
2021/12/05 12:53:29;;;;;;;;;2.75;2.50;;;;;6.62;100.00;99968.19;5056126;28;45850;-61
2021/12/05 12:56:05;;;;;;;;;1.00;1.00;;;;;6.60;100.00;99979.41;5054684;28;45492;-61
2021/12/05 12:58:43;;;;;;;;;4.50;2.00;;;;;6.67;100.00;99996.47;5057472;28;45322;-62
2021/12/05 13:04:38;;;;;;;;;6.25;5.00;;;;;6.87;100.00;99980.50;5055757;28;45572;-63
2021/12/05 13:12:41;;;;;;;;;8.25;5.00;;;;;6.86;100.00;99987.41;5061098;28;46458;-61
2021/12/05 13:15:21;;;;;;;;;19.75;19.75;;;;;6.98;98.66;99987.09;5056268;28;45327;-61
2021/12/05 13:17:48;;;;;;;;;6.75;6.25;;;;;7.21;100.00;99996.03;5056694;28;45717;-60
2021/12/05 13:20:18;;;;;;;;;5.00;5.00;;;;;7.37;100.00;99997.31;5058848;28;45470;-62
2021/12/05 13:23:21;;;;;;;;;3.50;3.50;;;;;7.50;100.00;100000.41;5062665;28;45500;-62
2021/12/05 13:26:02;;;;;;;;;4.50;3.50;;;;;7.55;100.00;100003.72;5051325;28;45778;-68
2021/12/05 13:28:34;;;;;;;;;5.00;4.00;;;;;7.57;100.00;99997.63;5062247;28;45390;-61
2021/12/05 13:31:21;;;;;;;;;3.00;3.00;;;;;7.63;100.00;99999.22;5062838;28;45488;-64
2021/12/05 13:33:46;;;;;;;;;5.50;2.75;;;;;7.72;100.00;100001.53;5062700;28;45355;-63
2021/12/05 13:36:30;;;;;;;;;2.75;1.00;;;;;7.80;98.83;100004.75;5062814;28;45219;-60
2021/12/05 13:38:56;;;;;;;;;3.00;3.00;;;;;7.76;100.00;100002.28;5062357;28;45277;-60
2021/12/05 13:41:21;;;;;;;;;4.00;2.50;;;;;7.71;100.00;100004.16;5062197;28;45175;-62
2021/12/05 13:43:56;;;;;;;;;2.00;2.00;;;;;7.67;100.00;100010.31;5062561;28;46344;-62
2021/12/05 13:46:38;;;;;;;;;1.75;1.75;;;;;7.53;100.00;100005.50;5062535;28;45438;-64
2021/12/05 13:49:32;;;;;;;;;2.00;2.00;;;;;7.49;100.00;100006.47;5062473;28;45382;-60
2021/12/05 13:52:35;;;;;;;;;3.00;3.00;;;;;7.56;100.00;100013.19;5062561;28;45386;-59
2021/12/05 13:55:41;;;;;;;;;7.00;5.00;;;;;7.55;100.00;100019.25;5050231;28;45327;-60
2021/12/05 13:58:19;;;;;;;;;5.00;5.00;;;;;7.55;100.00;100025.25;5057897;28;45338;-60
2021/12/05 14:00:58;;;;;;;;;5.25;4.00;;;;;7.51;100.00;100026.22;5062477;28;45475;-60
2021/12/05 14:03:44;;;;;;;;;4.50;3.00;;;;;7.53;100.00;100018.44;5062193;28;45289;-61
2021/12/05 14:06:28;;;;;;;;;5.50;5.00;;;;;7.72;100.00;100032.56;5061963;28;45389;-60
2021/12/05 14:08:58;;;;;;;;;5.50;5.50;;;;;7.79;100.00;100028.91;5061591;28;45397;-60
2021/12/05 14:11:24;;;;;;;;;3.50;3.50;;;;;7.85;100.00;100039.13;5061307;28;45299;-63
2021/12/05 14:13:50;;;;;;;;;7.00;5.00;;;;;7.85;100.00;100033.09;5060625;28;45574;-65
2021/12/05 14:16:18;;;;;;;;;3.00;3.00;;;;;7.81;100.00;100032.34;5060730;28;48599;-65
2021/12/05 14:18:44;;;;;;;;;7.50;5.25;;;;;7.69;100.00;100036.97;5059728;28;45826;-63
2021/12/05 14:21:14;;;;;;;;;6.75;3.00;;;;;7.58;100.00;100035.50;5061912;28;45553;-65
2021/12/05 14:23:47;;;;;;;;;7.50;3.50;;;;;7.57;100.00;100043.31;5061427;28;45445;-63
2021/12/05 14:26:14;;;;;;;;;7.00;5.00;;;;;7.53;100.00;100044.28;5062126;28;45456;-64
2021/12/05 14:28:40;;;;;;;;;2.25;2.00;;;;;7.54;100.00;100049.41;5061647;28;45761;-63
2021/12/05 14:31:05;;;;;;;;;3.50;3.50;;;;;7.54;100.00;100044.25;5061986;28;45315;-63
2021/12/05 14:33:49;;;;;;;;;7.50;5.25;;;;;7.55;100.00;100052.84;5061785;28;45273;-63
2021/12/05 14:36:32;;;;;;;;;5.50;4.00;;;;;7.60;100.00;100058.75;5061627;28;46386;-64
2021/12/05 14:39:26;;;;;;;;;2.00;2.00;;;;;7.60;100.00;100056.16;5052416;28;45708;-64
2021/12/05 14:41:56;;;;;;;;;6.00;6.00;;;;;7.61;100.00;100069.06;5045509;28;45441;-64
2021/12/05 14:44:23;;;;;;;;;2.25;2.25;;;;;7.59;100.00;100067.38;5060300;28;45565;-62
2021/12/05 14:46:55;;;;;;;;;1.00;1.00;;;;;7.59;100.00;100072.56;5043081;28;47487;-64
2021/12/05 14:49:24;;;;;;;;;5.00;5.00;;;;;7.52;100.00;100074.47;5060427;28;45805;-63
2021/12/05 14:51:51;;;;;;;;;5.50;4.50;;;;;7.46;100.00;100078.94;5061346;28;45316;-63
2021/12/05 14:54:22;;;;;;;;;5.50;5.00;;;;;7.44;100.00;100083.31;5045007;28;45513;-63
2021/12/05 14:56:48;;;;;;;;;6.25;3.00;;;;;7.45;100.00;100100.53;5044425;28;45398;-64
2021/12/05 14:59:15;;;;;;;;;6.25;5.00;;;;;7.43;100.00;100097.13;5055704;28;45283;-64
2021/12/05 15:01:44;;;;;;;;;3.00;2.50;;;;;7.38;100.00;100099.81;5040647;28;45428;-66
2021/12/05 15:04:10;;;;;;;;;4.50;3.00;;;;;7.36;100.00;100105.91;5054412;28;45225;-66
2021/12/05 15:06:44;;;;;;;;;2.50;2.00;;;;;7.30;100.00;100114.66;5060726;28;46555;-65
2021/12/05 15:09:37;;;;;;;;;3.00;3.00;;;;;7.26;100.00;100111.31;5059814;28;45196;-64
2021/12/05 15:12:13;;;;;;;;;3.00;3.00;;;;;7.25;100.00;100126.84;5057184;28;45322;-65
2021/12/05 15:14:42;;;;;;;;;7.00;3.00;;;;;7.21;100.00;100123.50;5050883;28;45414;-64
2021/12/05 15:17:14;;;;;;;;;3.00;3.00;;;;;7.14;100.00;100132.25;5050135;28;47124;-66
2021/12/05 15:19:44;;;;;;;;;10.50;6.25;;;;;7.12;100.00;100128.00;5056623;28;45246;-67
2021/12/05 15:22:12;;;;;;;;;10.00;7.00;;;;;7.08;100.00;100134.16;5039792;28;45782;-67
2021/12/05 15:24:38;;;;;;;;;5.00;5.00;;;;;7.08;100.00;100141.91;5039965;28;45545;-67
2021/12/05 15:27:11;;;;;;;;;6.00;6.00;;;;;7.06;100.00;100151.41;5020297;28;47397;-68
2021/12/05 15:29:36;;;;;;;;;5.00;5.00;;;;;7.03;100.00;100148.91;5039356;28;45349;-68
2021/12/05 15:32:02;;;;;;;;;5.00;5.00;;;;;7.00;100.00;100147.22;5021520;28;45508;-66
2021/12/05 15:34:32;;;;;;;;;6.00;3.00;;;;;6.96;100.00;100159.34;5040549;28;45355;-66
2021/12/05 15:37:04;;;;;;;;;4.00;3.00;;;;;6.91;100.00;100158.63;5041200;28;45263;-65
2021/12/05 15:39:30;;;;;;;;;7.50;5.00;;;;;6.88;100.00;100165.59;5050233;28;45935;-66
2021/12/05 15:41:59;;;;;;;;;5.75;5.75;;;;;6.87;100.00;100166.47;5059274;28;45386;-64
2021/12/05 15:44:26;;;;;;;;;5.25;5.00;;;;;6.87;100.00;100174.22;5055309;28;45590;-64
2021/12/05 15:47:07;;;;;;;;;4.50;3.00;;;;;6.86;100.00;100169.94;5054891;28;45351;-64
2021/12/05 15:49:48;;;;;;;;;2.25;2.25;;;;;6.83;100.00;100191.50;5055203;28;45796;-64
2021/12/05 15:52:14;;;;;;;;;11.00;7.00;;;;;6.84;100.00;100195.81;5054274;28;45622;-64
2021/12/05 15:54:43;;;;;;;;;4.50;3.00;;;;;6.74;100.00;100186.53;5058043;28;45375;-66
2021/12/05 15:57:13;;;;;;;;;1.50;1.50;;;;;6.78;100.00;100206.22;5057696;28;46172;-66
2021/12/05 15:59:42;;;;;;;;;5.50;5.50;;;;;6.77;100.00;100204.53;5055841;28;45369;-65
2021/12/05 16:02:10;;;;;;;;;5.00;5.00;;;;;6.81;100.00;100219.09;5059124;28;45324;-64
2021/12/05 16:04:39;;;;;;;;;6.75;5.75;;;;;6.85;100.00;100223.31;5062369;28;45260;-65
2021/12/05 16:07:10;;;;;;;;;9.00;6.50;;;;;6.88;100.00;100232.75;5057269;28;46333;-66
2021/12/05 16:09:37;;;;;;;;;5.00;5.00;;;;;6.90;100.00;100230.97;5057488;28;45495;-65
2021/12/05 16:12:11;;;;;;;;;8.75;7.00;;;;;6.94;100.00;100240.34;5059637;28;45323;-66
2021/12/05 16:14:42;;;;;;;;;7.50;6.50;;;;;6.96;100.00;100243.75;5059556;28;45503;-65
2021/12/05 16:17:33;;;;;;;;;11.25;7.00;;;;;7.01;100.00;100244.53;5056631;28;46284;-66
2021/12/05 16:20:14;;;;;;;;;5.75;5.75;;;;;7.02;100.00;100253.97;5056958;27;45286;-64
2021/12/05 16:22:57;;;;;;;;;3.50;3.50;;;;;7.07;100.00;100256.47;5058615;28;45469;-65
2021/12/05 16:25:24;;;;;;;;;10.50;6.00;;;;;7.05;100.00;100260.81;5060112;28;45157;-64
2021/12/05 16:27:55;;;;;;;;;5.75;5.25;;;;;7.03;100.00;100257.41;5059831;28;46263;-64
2021/12/05 16:30:26;;;;;;;;;6.75;5.25;;;;;7.06;100.00;100270.25;5046726;28;45828;-64
2021/12/05 16:32:53;;;;;;;;;10.00;6.75;;;;;7.10;100.00;100269.31;5059685;28;45338;-66
2021/12/05 16:35:41;;;;;;;;;9.50;5.75;;;;;7.12;100.00;100280.47;5059866;28;45516;-66
2021/12/05 16:38:29;;;;;;;;;10.00;7.00;;;;;7.13;100.00;100279.56;5058980;28;47116;-66
2021/12/05 16:41:14;;;;;;;;;6.50;6.50;;;;;7.12;100.00;100277.88;5057407;28;45559;-66
2021/12/05 16:44:09;;;;;;;;;9.25;7.25;;;;;7.14;100.00;100282.13;5056859;28;45500;-66
2021/12/05 16:46:41;;;;;;;;;7.50;6.50;;;;;7.14;100.00;100283.84;5043664;28;45441;-66
2021/12/05 16:49:10;;;;;;;;;7.00;6.00;;;;;7.19;100.00;100292.34;5058674;28;46350;-66
2021/12/05 16:51:48;;;;;;;;;7.00;5.75;;;;;7.22;100.00;100292.31;5058600;28;45697;-66
2021/12/05 16:54:28;;;;;;;;;7.00;7.00;;;;;7.22;100.00;100303.50;5058201;28;45385;-65
2021/12/05 16:56:57;;;;;;;;;6.50;6.00;;;;;7.25;100.00;100303.44;5055258;28;45516;-66
2021/12/05 16:59:45;;;;;;;;;6.00;6.00;;;;;7.28;100.00;100305.09;5056113;28;46084;-65
2021/12/05 17:02:21;;;;;;;;;10.00;8.50;;;;;7.28;100.00;100299.94;5059242;28;45307;-66
2021/12/05 17:05:06;;;;;;;;;10.50;7.25;;;;;7.29;100.00;100312.81;5059643;28;45526;-66
2021/12/05 17:07:37;;;;;;;;;6.75;5.75;;;;;7.29;100.00;100314.56;5058562;28;45264;-67
2021/12/05 17:10:28;;;;;;;;;9.50;7.00;;;;;7.26;100.00;100319.81;5059272;28;45462;-65
2021/12/05 17:13:12;;;;;;;;;7.50;6.50;;;;;7.26;100.00;100323.22;5058962;28;45861;-65
2021/12/05 17:15:50;;;;;;;;;9.50;8.25;;;;;7.27;100.00;100331.84;5059424;28;45238;-65
2021/12/05 17:18:21;;;;;;;;;12.25;6.75;;;;;7.29;100.00;100330.06;5059066;28;45421;-65
2021/12/05 17:20:50;;;;;;;;;7.25;3.50;;;;;7.29;100.00;100328.34;5058590;28;45247;-65
2021/12/05 17:23:23;;;;;;;;;10.00;8.50;;;;;7.28;100.00;100338.72;5058262;28;46035;-67